createdAt,value
2019-05-05T00:01:16.431Z,3.38
2019-05-05T00:06:18.956Z,3.33
2019-05-05T00:11:40.492Z,3.38
2019-05-05T00:16:48.277Z,3.37
2019-05-05T00:21:50.306Z,3.31
2019-05-05T00:26:52.480Z,3.24
2019-05-05T00:31:54.848Z,2.80
2019-05-05T00:36:57.133Z,2.64
2019-05-05T00:41:59.120Z,2.88
2019-05-05T00:47:20.845Z,2.54
2019-05-05T00:52:24.522Z,2.50
2019-05-05T00:57:26.686Z,2.76
2019-05-05T01:02:37.499Z,2.48
2019-05-05T01:07:39.747Z,2.37
2019-05-05T01:12:41.836Z,2.07
2019-05-05T01:17:45.112Z,2.27
2019-05-05T01:22:47.532Z,2.14
2019-05-05T01:27:49.703Z,2.07
2019-05-05T01:32:56.227Z,1.84
2019-05-05T01:38:07.049Z,1.89
2019-05-05T01:43:09.838Z,1.88
2019-05-05T01:48:11.808Z,1.90
2019-05-05T01:53:15.256Z,1.98
2019-05-05T01:58:17.770Z,2.06
2019-05-05T02:03:20.144Z,2.38
2019-05-05T02:08:24.312Z,2.56
2019-05-05T02:13:26.376Z,2.55
2019-05-05T02:18:28.610Z,2.43
2019-05-05T02:23:31.183Z,2.17
2019-05-05T02:28:39.870Z,1.78
2019-05-05T02:33:42.479Z,1.84
2019-05-05T02:38:46.339Z,2.26
2019-05-05T02:43:50.597Z,2.26
2019-05-05T02:48:56.510Z,2.48
2019-05-05T02:54:04.254Z,2.50
2019-05-05T02:59:10.482Z,2.44
2019-05-05T03:04:14.107Z,2.59
2019-05-05T03:09:17.790Z,2.53
2019-05-05T03:14:23.725Z,2.63
2019-05-05T03:19:27.242Z,2.71
2019-05-05T03:24:31.047Z,2.64
2019-05-05T03:29:33.644Z,2.46
2019-05-05T03:34:36.794Z,2.52
2019-05-05T03:39:44.417Z,2.52
2019-05-05T03:44:54.476Z,2.64
2019-05-05T03:49:57.104Z,2.57
2019-05-05T03:54:59.311Z,2.67
2019-05-05T04:00:01.518Z,2.64
2019-05-05T04:05:20.027Z,2.66
2019-05-05T04:10:22.109Z,2.55
2019-05-05T04:15:24.538Z,2.39
2019-05-05T04:20:37.797Z,2.47
2019-05-05T04:25:40.009Z,2.52
2019-05-05T04:30:44.487Z,2.56
2019-05-05T04:35:46.431Z,2.55
2019-05-05T04:40:48.626Z,2.58
2019-05-05T04:45:51.511Z,2.46
2019-05-05T04:51:07.156Z,2.65
2019-05-05T04:56:09.326Z,2.83
2019-05-05T05:01:13.650Z,2.94
2019-05-05T05:06:23.767Z,3.23
2019-05-05T05:11:25.820Z,4.19
2019-05-05T05:16:27.803Z,6.09
2019-05-05T05:21:29.860Z,6.15
2019-05-05T05:26:33.576Z,5.50
2019-05-05T05:31:35.761Z,4.59
2019-05-05T05:36:37.898Z,4.28
2019-05-05T05:41:43.864Z,4.25
2019-05-05T05:47:04.911Z,4.10
2019-05-05T05:52:15.953Z,4.11
2019-05-05T05:57:10.886Z,4.30
2019-05-05T06:02:15.482Z,6.69
2019-05-05T06:07:16.858Z,8.02
2019-05-05T06:12:18.969Z,9.06
2019-05-05T06:17:21.073Z,8.08
2019-05-05T06:22:29.213Z,6.38
2019-05-05T06:27:27.388Z,5.79
2019-05-05T06:32:29.680Z,5.74
2019-05-05T06:37:31.839Z,5.47
2019-05-05T06:42:44.411Z,5.61
2019-05-05T06:47:46.459Z,5.82
2019-05-05T06:52:48.458Z,5.70
2019-05-05T06:57:50.616Z,5.84
2019-05-05T07:02:54.119Z,5.77
2019-05-05T07:07:56.240Z,5.58
2019-05-05T07:12:58.328Z,5.79
2019-05-05T07:18:01.160Z,5.76
2019-05-05T07:23:05.434Z,5.99
2019-05-05T07:28:07.704Z,5.96
2019-05-05T07:33:09.770Z,6.25
2019-05-05T07:38:13.853Z,6.17
2019-05-05T07:43:16.057Z,6.34
2019-05-05T07:48:18.156Z,6.49
2019-05-05T07:53:20.350Z,6.46
2019-05-05T07:58:24.209Z,6.53
2019-05-05T08:03:26.241Z,6.60
2019-05-05T08:08:28.377Z,6.75
2019-05-05T08:13:30.548Z,6.60
2019-05-05T08:18:50.441Z,7.00
2019-05-05T08:24:10.954Z,6.98
2019-05-05T08:29:31.111Z,6.69
2019-05-05T08:34:34.103Z,7.32
2019-05-05T08:39:36.358Z,7.37
2019-05-05T08:44:38.434Z,7.52
2019-05-05T08:49:40.402Z,7.64
2019-05-05T08:54:44.476Z,7.75
2019-05-05T08:59:46.422Z,7.59
2019-05-05T09:04:48.528Z,7.55
2019-05-05T09:09:51.597Z,7.85
2019-05-05T09:14:53.963Z,7.51
2019-05-05T09:19:56.120Z,7.90
2019-05-05T09:25:06.001Z,8.22
2019-05-05T09:30:09.545Z,8.43
2019-05-05T09:35:13.892Z,8.19
2019-05-05T09:40:20.869Z,8.08
2019-05-05T09:45:24.445Z,7.91
2019-05-05T09:50:26.800Z,7.96
2019-05-05T09:55:29.224Z,8.14
2019-05-05T10:00:35.361Z,8.32
2019-05-05T10:05:37.450Z,8.52
2019-05-05T10:10:39.565Z,8.24
2019-05-05T10:15:43.772Z,8.09
2019-05-05T10:20:45.883Z,8.17
2019-05-05T10:25:49.924Z,8.37
2019-05-05T10:30:53.850Z,8.89
2019-05-05T10:35:56.173Z,8.57
2019-05-05T10:40:58.503Z,8.51
2019-05-05T10:46:00.821Z,8.54
2019-05-05T10:51:04.202Z,8.42
2019-05-05T10:56:06.704Z,8.78
2019-05-05T11:01:08.786Z,8.68
2019-05-05T11:06:11.213Z,8.59
2019-05-05T11:11:13.760Z,8.68
2019-05-05T11:16:15.910Z,8.84
2019-05-05T11:21:17.877Z,9.23
2019-05-05T11:26:20.292Z,8.96
2019-05-05T11:31:23.957Z,8.97
2019-05-05T11:36:30.528Z,9.32
2019-05-05T11:41:33.077Z,9.56
2019-05-05T11:46:35.359Z,10.01
2019-05-05T11:51:37.454Z,9.42
2019-05-05T11:56:39.753Z,9.41
2019-05-05T12:01:43.869Z,8.90
2019-05-05T12:06:46.212Z,9.01
2019-05-05T12:11:48.663Z,9.38
2019-05-05T12:16:50.793Z,9.25
2019-05-05T12:21:54.790Z,9.40
2019-05-05T12:27:15.700Z,9.06
2019-05-05T12:32:18.436Z,9.18
2019-05-05T12:37:20.988Z,9.91
2019-05-05T12:42:24.201Z,9.73
2019-05-05T12:47:52.112Z,9.70
2019-05-05T12:52:54.948Z,10.00
2019-05-05T12:57:57.242Z,10.41
2019-05-05T13:02:59.276Z,10.44
2019-05-05T13:08:01.421Z,10.25
2019-05-05T13:13:04.609Z,10.12
2019-05-05T13:18:06.785Z,10.09
2019-05-05T13:23:40.625Z,9.86
2019-05-05T13:28:43.728Z,10.19
2019-05-05T13:33:46.888Z,10.68
2019-05-05T13:38:51.924Z,10.79
2019-05-05T13:43:54.959Z,10.86
2019-05-05T13:49:16.837Z,10.23
2019-05-05T13:54:19.133Z,10.23
2019-05-05T13:59:21.279Z,9.99
2019-05-05T14:04:23.464Z,10.23
2019-05-05T14:09:25.689Z,9.96
2019-05-05T14:14:27.760Z,9.95
2019-05-05T14:19:29.842Z,10.31
2019-05-05T14:24:39.741Z,10.52
2019-05-05T14:30:04.767Z,10.19
2019-05-05T14:35:36.015Z,10.02
2019-05-05T14:40:38.238Z,10.22
2019-05-05T14:45:40.465Z,10.90
2019-05-05T14:50:43.824Z,11.04
2019-05-05T14:55:46.113Z,10.98
2019-05-05T15:00:48.349Z,10.71
2019-05-05T15:05:57.588Z,10.47
2019-05-05T15:11:25.784Z,10.85
2019-05-05T15:16:29.041Z,11.09
2019-05-05T15:21:31.365Z,10.98
2019-05-05T15:26:34.447Z,10.35
2019-05-05T15:31:36.773Z,10.09
2019-05-05T15:36:38.943Z,10.07
2019-05-05T15:41:41.990Z,10.01
2019-05-05T15:46:44.513Z,9.93
2019-05-05T15:51:46.785Z,10.13
2019-05-05T15:57:02.320Z,10.51
2019-05-05T16:01:54.842Z,10.11
2019-05-05T16:06:57.192Z,10.02
2019-05-05T16:11:59.391Z,10.06
2019-05-05T16:17:24.209Z,9.95
2019-05-05T16:22:34.677Z,9.85
2019-05-05T16:27:37.105Z,9.83
2019-05-05T16:32:39.408Z,9.84
2019-05-05T16:37:42.651Z,9.84
2019-05-05T16:42:45.053Z,10.00
2019-05-05T16:47:47.153Z,10.19
2019-05-05T16:52:56.018Z,10.19
2019-05-05T16:57:58.724Z,9.91
2019-05-05T17:03:04.070Z,9.76
2019-05-05T17:08:06.180Z,9.69
2019-05-05T17:13:18.275Z,9.49
2019-05-05T17:18:35.795Z,9.36
2019-05-05T17:23:36.977Z,9.28
2019-05-05T17:28:39.225Z,9.30
2019-05-05T17:33:44.199Z,9.36
2019-05-05T17:38:46.602Z,9.27
2019-05-05T17:44:03.508Z,9.18
2019-05-05T17:54:54.724Z,9.33
2019-05-05T17:59:56.897Z,9.48
2019-05-05T18:04:59.206Z,9.46
2019-05-05T18:15:54.189Z,9.24
2019-05-05T18:20:56.151Z,9.13
2019-05-05T18:25:58.680Z,9.08
2019-05-05T18:31:01.437Z,9.06
2019-05-05T18:36:04.405Z,8.88
2019-05-05T18:41:14.057Z,8.71
2019-05-05T18:46:16.294Z,8.62
2019-05-05T18:51:18.385Z,8.50
2019-05-05T18:56:20.628Z,8.46
2019-05-05T19:01:44.451Z,8.40
2019-05-05T19:07:21.393Z,8.33
2019-05-05T19:12:24.374Z,8.35
2019-05-05T19:17:28.718Z,8.28
2019-05-05T19:22:30.839Z,8.33
2019-05-05T19:27:34.258Z,8.29
2019-05-05T19:32:36.923Z,8.27
2019-05-05T19:37:39.461Z,8.13
2019-05-05T19:42:41.712Z,8.10
2019-05-05T19:47:44.029Z,8.08
2019-05-05T19:52:46.690Z,8.09
2019-05-05T19:57:49.163Z,8.13
2019-05-05T20:03:03.897Z,8.04
2019-05-05T20:07:55.525Z,7.85
2019-05-05T20:12:57.778Z,7.74
2019-05-05T20:18:04.526Z,7.70
2019-05-05T20:23:07.081Z,7.66
2019-05-05T20:28:09.160Z,7.64
2019-05-05T20:33:18.965Z,7.61
2019-05-05T20:38:47.629Z,7.46
2019-05-05T20:43:50.549Z,7.54
2019-05-05T20:48:54.450Z,7.49
2019-05-05T20:53:57.121Z,7.45
2019-05-05T20:59:00.476Z,7.34
2019-05-05T21:04:04.588Z,7.37
2019-05-05T21:09:06.999Z,7.32
2019-05-05T21:14:09.438Z,7.24
2019-05-05T21:19:13.954Z,7.13
2019-05-05T21:24:15.613Z,6.93
2019-05-05T21:29:18.127Z,6.87
2019-05-05T21:34:20.793Z,6.94
2019-05-05T21:39:24.901Z,6.96
2019-05-05T21:44:26.995Z,6.79
2019-05-05T21:49:29.123Z,6.71
2019-05-05T21:54:56.523Z,6.62
2019-05-05T21:59:59.075Z,6.63
2019-05-05T22:05:01.186Z,6.53
2019-05-05T22:10:04.476Z,6.57
2019-05-05T22:15:07.434Z,6.62
2019-05-05T22:20:17.845Z,6.64
2019-05-05T22:25:19.834Z,6.61
2019-05-05T22:30:23.683Z,6.60
2019-05-05T22:35:26.109Z,6.65
2019-05-05T22:40:28.313Z,6.65
2019-05-05T22:45:30.846Z,6.66
2019-05-05T22:50:34.092Z,6.67
2019-05-05T22:55:37.666Z,6.79
2019-05-05T23:00:39.884Z,6.78
2019-05-05T23:05:50.688Z,6.83
2019-05-05T23:10:54.429Z,6.87
2019-05-05T23:16:04.156Z,6.99
2019-05-05T23:21:31.540Z,6.95
2019-05-05T23:26:35.965Z,7.07
2019-05-05T23:31:38.267Z,6.91
2019-05-05T23:36:40.303Z,6.81
2019-05-05T23:41:42.503Z,6.84
2019-05-05T23:46:44.650Z,6.82
2019-05-05T23:51:46.778Z,6.76
2019-05-05T23:56:48.892Z,6.88
